sensor_id;sensor_type;location;lat;lon;timestamp;temperature;humidity
30300;DHT22;17110;52.602;12.998;2023-06-22T00:02:19;18.20;99.90
30300;DHT22;17110;52.602;12.998;2023-06-22T00:04:45;18.10;99.90
30300;DHT22;17110;52.602;12.998;2023-06-22T00:07:12;18.10;99.90
30300;DHT22;17110;52.602;12.998;2023-06-22T00:09:38;18.10;99.90
30300;DHT22;17110;52.602;12.998;2023-06-22T00:12:04;18.00;99.90
30300;DHT22;17110;52.602;12.998;2023-06-22T00:14:30;18.00;99.90
30300;DHT22;17110;52.602;12.998;2023-06-22T00:16:56;17.90;99.90
30300;DHT22;17110;52.602;12.998;2023-06-22T00:19:21;17.90;99.90
30300;DHT22;17110;52.602;12.998;2023-06-22T00:21:47;17.90;99.90
30300;DHT22;17110;52.602;12.998;2023-06-22T00:24:14;17.80;99.90
30300;DHT22;17110;52.602;12.998;2023-06-22T00:26:39;17.80;99.90
30300;DHT22;17110;52.602;12.998;2023-06-22T00:29:09;17.70;99.90
30300;DHT22;17110;52.602;12.998;2023-06-22T00:31:34;17.70;99.90
30300;DHT22;17110;52.602;12.998;2023-06-22T00:34:00;17.60;99.90
30300;DHT22;17110;52.602;12.998;2023-06-22T00:36:25;17.50;99.90
30300;DHT22;17110;52.602;12.998;2023-06-22T00:38:51;17.50;99.90
30300;DHT22;17110;52.602;12.998;2023-06-22T00:41:18;17.50;99.90
30300;DHT22;17110;52.602;12.998;2023-06-22T00:43:44;17.50;99.90
30300;DHT22;17110;52.602;12.998;2023-06-22T00:46:10;17.50;99.90
30300;DHT22;17110;52.602;12.998;2023-06-22T00:48:36;17.40;99.90
30300;DHT22;17110;52.602;12.998;2023-06-22T00:51:02;17.40;99.90
30300;DHT22;17110;52.602;12.998;2023-06-22T00:53:28;17.30;99.90
30300;DHT22;17110;52.602;12.998;2023-06-22T00:55:54;17.30;99.90
30300;DHT22;17110;52.602;12.998;2023-06-22T00:58:22;17.20;99.90
30300;DHT22;17110;52.602;12.998;2023-06-22T01:00:48;17.10;99.90
30300;DHT22;17110;52.602;12.998;2023-06-22T01:03:13;17.20;99.90
30300;DHT22;17110;52.602;12.998;2023-06-22T01:05:40;17.20;99.90
30300;DHT22;17110;52.602;12.998;2023-06-22T01:08:12;17.20;99.90
30300;DHT22;17110;52.602;12.998;2023-06-22T01:10:44;17.20;99.90
30300;DHT22;17110;52.602;12.998;2023-06-22T01:13:18;17.20;99.90
30300;DHT22;17110;52.602;12.998;2023-06-22T01:15:51;17.20;99.90
30300;DHT22;17110;52.602;12.998;2023-06-22T01:18:19;17.20;99.90
30300;DHT22;17110;52.602;12.998;2023-06-22T01:20:46;17.20;99.90
30300;DHT22;17110;52.602;12.998;2023-06-22T01:23:21;17.20;99.90
30300;DHT22;17110;52.602;12.998;2023-06-22T01:25:59;17.20;99.90
30300;DHT22;17110;52.602;12.998;2023-06-22T01:28:45;17.20;99.90
30300;DHT22;17110;52.602;12.998;2023-06-22T01:31:14;17.20;99.90
30300;DHT22;17110;52.602;12.998;2023-06-22T01:33:43;17.20;99.90
30300;DHT22;17110;52.602;12.998;2023-06-22T01:36:10;17.10;99.90
30300;DHT22;17110;52.602;12.998;2023-06-22T01:38:38;17.10;99.90
30300;DHT22;17110;52.602;12.998;2023-06-22T01:41:04;17.10;99.90
30300;DHT22;17110;52.602;12.998;2023-06-22T01:43:30;17.10;99.90
30300;DHT22;17110;52.602;12.998;2023-06-22T01:46:02;17.10;99.90
30300;DHT22;17110;52.602;12.998;2023-06-22T01:48:28;17.10;99.90
30300;DHT22;17110;52.602;12.998;2023-06-22T01:50:54;17.00;99.90
30300;DHT22;17110;52.602;12.998;2023-06-22T01:53:20;17.00;99.90
30300;DHT22;17110;52.602;12.998;2023-06-22T01:55:46;17.00;99.90
30300;DHT22;17110;52.602;12.998;2023-06-22T01:58:13;17.00;99.90
30300;DHT22;17110;52.602;12.998;2023-06-22T02:00:40;16.90;99.90
30300;DHT22;17110;52.602;12.998;2023-06-22T02:03:13;16.90;99.90
30300;DHT22;17110;52.602;12.998;2023-06-22T02:05:47;16.90;99.90
30300;DHT22;17110;52.602;12.998;2023-06-22T02:08:19;16.90;99.90
30300;DHT22;17110;52.602;12.998;2023-06-22T02:10:46;16.90;99.90
30300;DHT22;17110;52.602;12.998;2023-06-22T02:13:14;16.90;99.90
30300;DHT22;17110;52.602;12.998;2023-06-22T02:15:40;16.90;99.90
30300;DHT22;17110;52.602;12.998;2023-06-22T02:18:06;16.90;99.90
30300;DHT22;17110;52.602;12.998;2023-06-22T02:20:36;16.90;99.90
30300;DHT22;17110;52.602;12.998;2023-06-22T02:23:02;16.90;99.90
30300;DHT22;17110;52.602;12.998;2023-06-22T02:25:28;16.90;99.90
30300;DHT22;17110;52.602;12.998;2023-06-22T02:27:53;16.90;99.90
30300;DHT22;17110;52.602;12.998;2023-06-22T02:30:19;16.80;99.90
30300;DHT22;17110;52.602;12.998;2023-06-22T02:32:45;16.80;99.90
30300;DHT22;17110;52.602;12.998;2023-06-22T02:35:10;16.70;99.90
30300;DHT22;17110;52.602;12.998;2023-06-22T02:37:37;16.80;99.90
30300;DHT22;17110;52.602;12.998;2023-06-22T02:40:04;16.70;99.90
30300;DHT22;17110;52.602;12.998;2023-06-22T02:42:30;16.70;99.90
30300;DHT22;17110;52.602;12.998;2023-06-22T02:44:56;16.70;99.90
30300;DHT22;17110;52.602;12.998;2023-06-22T02:47:21;16.70;99.90
30300;DHT22;17110;52.602;12.998;2023-06-22T02:49:47;16.80;99.90
30300;DHT22;17110;52.602;12.998;2023-06-22T02:52:13;16.80;99.90
30300;DHT22;17110;52.602;12.998;2023-06-22T02:54:40;16.80;99.90
30300;DHT22;17110;52.602;12.998;2023-06-22T02:57:06;16.80;99.90
30300;DHT22;17110;52.602;12.998;2023-06-22T02:59:32;16.80;99.90
30300;DHT22;17110;52.602;12.998;2023-06-22T03:02:04;16.80;99.90
30300;DHT22;17110;52.602;12.998;2023-06-22T03:04:32;16.90;99.90
30300;DHT22;17110;52.602;12.998;2023-06-22T03:06:58;16.90;99.90
30300;DHT22;17110;52.602;12.998;2023-06-22T03:09:24;16.90;99.90
30300;DHT22;17110;52.602;12.998;2023-06-22T03:11:51;16.90;99.90
30300;DHT22;17110;52.602;12.998;2023-06-22T03:14:18;17.00;99.90
30300;DHT22;17110;52.602;12.998;2023-06-22T03:16:44;17.00;99.90
30300;DHT22;17110;52.602;12.998;2023-06-22T03:19:10;17.00;99.90
30300;DHT22;17110;52.602;12.998;2023-06-22T03:21:37;17.10;99.90
30300;DHT22;17110;52.602;12.998;2023-06-22T03:24:04;17.20;99.90
30300;DHT22;17110;52.602;12.998;2023-06-22T03:26:30;17.30;99.90
30300;DHT22;17110;52.602;12.998;2023-06-22T03:28:58;17.30;99.90
30300;DHT22;17110;52.602;12.998;2023-06-22T03:31:24;17.30;99.90
30300;DHT22;17110;52.602;12.998;2023-06-22T03:33:50;17.40;99.90
30300;DHT22;17110;52.602;12.998;2023-06-22T03:36:16;17.40;99.90
30300;DHT22;17110;52.602;12.998;2023-06-22T03:38:45;17.40;99.90
30300;DHT22;17110;52.602;12.998;2023-06-22T03:41:11;17.40;99.90
30300;DHT22;17110;52.602;12.998;2023-06-22T03:43:37;17.40;99.90
30300;DHT22;17110;52.602;12.998;2023-06-22T03:46:04;17.40;99.90
30300;DHT22;17110;52.602;12.998;2023-06-22T03:48:30;17.50;99.90
30300;DHT22;17110;52.602;12.998;2023-06-22T03:50:56;17.60;99.90
30300;DHT22;17110;52.602;12.998;2023-06-22T03:53:21;17.70;99.90
30300;DHT22;17110;52.602;12.998;2023-06-22T03:55:51;17.80;99.90
30300;DHT22;17110;52.602;12.998;2023-06-22T03:58:17;17.90;99.90
30300;DHT22;17110;52.602;12.998;2023-06-22T04:00:43;18.00;99.90
30300;DHT22;17110;52.602;12.998;2023-06-22T04:03:10;18.10;99.90
30300;DHT22;17110;52.602;12.998;2023-06-22T04:05:35;18.20;99.90
30300;DHT22;17110;52.602;12.998;2023-06-22T04:08:01;18.30;99.90
30300;DHT22;17110;52.602;12.998;2023-06-22T04:10:27;18.30;99.90
30300;DHT22;17110;52.602;12.998;2023-06-22T04:12:52;18.40;99.90
30300;DHT22;17110;52.602;12.998;2023-06-22T04:15:18;18.50;99.90
30300;DHT22;17110;52.602;12.998;2023-06-22T04:17:43;18.60;99.90
30300;DHT22;17110;52.602;12.998;2023-06-22T04:20:11;18.80;99.90
30300;DHT22;17110;52.602;12.998;2023-06-22T04:22:36;19.00;99.90
30300;DHT22;17110;52.602;12.998;2023-06-22T04:25:02;19.30;99.90
30300;DHT22;17110;52.602;12.998;2023-06-22T04:27:28;19.40;99.90
30300;DHT22;17110;52.602;12.998;2023-06-22T04:29:54;19.40;99.90
30300;DHT22;17110;52.602;12.998;2023-06-22T04:32:19;19.50;99.90
30300;DHT22;17110;52.602;12.998;2023-06-22T04:34:45;19.60;99.90
30300;DHT22;17110;52.602;12.998;2023-06-22T04:37:12;19.70;99.90
30300;DHT22;17110;52.602;12.998;2023-06-22T04:39:38;20.00;99.90
30300;DHT22;17110;52.602;12.998;2023-06-22T04:42:04;20.20;99.90
30300;DHT22;17110;52.602;12.998;2023-06-22T04:44:30;20.50;99.90
30300;DHT22;17110;52.602;12.998;2023-06-22T04:46:57;20.90;99.90
30300;DHT22;17110;52.602;12.998;2023-06-22T04:49:23;21.10;99.90
30300;DHT22;17110;52.602;12.998;2023-06-22T04:51:48;21.20;99.90
30300;DHT22;17110;52.602;12.998;2023-06-22T04:54:15;21.40;99.90
30300;DHT22;17110;52.602;12.998;2023-06-22T04:56:41;21.60;99.90
30300;DHT22;17110;52.602;12.998;2023-06-22T04:59:07;21.80;99.90
30300;DHT22;17110;52.602;12.998;2023-06-22T05:01:32;21.60;99.90
30300;DHT22;17110;52.602;12.998;2023-06-22T05:03:58;21.40;99.90
30300;DHT22;17110;52.602;12.998;2023-06-22T05:06:24;21.30;99.90
30300;DHT22;17110;52.602;12.998;2023-06-22T05:08:51;21.20;99.90
30300;DHT22;17110;52.602;12.998;2023-06-22T05:11:18;21.10;99.90
30300;DHT22;17110;52.602;12.998;2023-06-22T05:13:43;21.10;99.90
30300;DHT22;17110;52.602;12.998;2023-06-22T05:16:09;21.20;99.90
30300;DHT22;17110;52.602;12.998;2023-06-22T05:18:35;21.30;99.90
30300;DHT22;17110;52.602;12.998;2023-06-22T05:21:01;21.50;99.90
30300;DHT22;17110;52.602;12.998;2023-06-22T05:23:26;22.10;99.90
30300;DHT22;17110;52.602;12.998;2023-06-22T05:25:52;22.50;99.90
30300;DHT22;17110;52.602;12.998;2023-06-22T05:28:19;23.80;99.90
30300;DHT22;17110;52.602;12.998;2023-06-22T05:30:44;25.20;99.90
30300;DHT22;17110;52.602;12.998;2023-06-22T05:33:10;26.20;99.90
30300;DHT22;17110;52.602;12.998;2023-06-22T05:35:36;27.50;99.90
30300;DHT22;17110;52.602;12.998;2023-06-22T05:38:01;28.40;99.90
30300;DHT22;17110;52.602;12.998;2023-06-22T05:40:27;29.30;99.90
30300;DHT22;17110;52.602;12.998;2023-06-22T05:42:52;29.50;99.90
30300;DHT22;17110;52.602;12.998;2023-06-22T05:45:19;29.60;99.90
30300;DHT22;17110;52.602;12.998;2023-06-22T05:47:45;30.00;99.90
30300;DHT22;17110;52.602;12.998;2023-06-22T05:50:11;29.60;99.90
30300;DHT22;17110;52.602;12.998;2023-06-22T05:52:36;29.50;99.90
30300;DHT22;17110;52.602;12.998;2023-06-22T05:55:02;28.70;99.90
30300;DHT22;17110;52.602;12.998;2023-06-22T05:57:28;27.80;99.90
30300;DHT22;17110;52.602;12.998;2023-06-22T05:59:53;27.50;99.90
30300;DHT22;17110;52.602;12.998;2023-06-22T06:02:20;27.10;99.90
30300;DHT22;17110;52.602;12.998;2023-06-22T06:04:46;26.90;99.90
30300;DHT22;17110;52.602;12.998;2023-06-22T06:07:12;27.40;99.90
30300;DHT22;17110;52.602;12.998;2023-06-22T06:09:37;28.60;99.90
30300;DHT22;17110;52.602;12.998;2023-06-22T06:12:04;29.50;99.90
30300;DHT22;17110;52.602;12.998;2023-06-22T06:14:29;29.60;99.90
30300;DHT22;17110;52.602;12.998;2023-06-22T06:16:55;30.00;99.90
30300;DHT22;17110;52.602;12.998;2023-06-22T06:19:22;30.80;99.90
30300;DHT22;17110;52.602;12.998;2023-06-22T06:21:48;31.00;99.90
30300;DHT22;17110;52.602;12.998;2023-06-22T06:24:13;31.40;98.00
30300;DHT22;17110;52.602;12.998;2023-06-22T06:26:39;31.50;98.00
30300;DHT22;17110;52.602;12.998;2023-06-22T06:29:05;31.80;97.80
30300;DHT22;17110;52.602;12.998;2023-06-22T06:31:30;31.80;97.90
30300;DHT22;17110;52.602;12.998;2023-06-22T06:33:56;31.20;96.90
30300;DHT22;17110;52.602;12.998;2023-06-22T06:36:23;31.40;97.40
30300;DHT22;17110;52.602;12.998;2023-06-22T06:38:48;31.30;98.20
30300;DHT22;17110;52.602;12.998;2023-06-22T06:41:15;30.90;97.60
30300;DHT22;17110;52.602;12.998;2023-06-22T06:43:40;31.20;99.40
30300;DHT22;17110;52.602;12.998;2023-06-22T06:46:06;30.80;98.70
30300;DHT22;17110;52.602;12.998;2023-06-22T06:48:32;30.40;97.50
30300;DHT22;17110;52.602;12.998;2023-06-22T06:50:58;29.50;97.40
30300;DHT22;17110;52.602;12.998;2023-06-22T06:53:25;29.00;98.10
30300;DHT22;17110;52.602;12.998;2023-06-22T06:55:50;28.90;99.60
30300;DHT22;17110;52.602;12.998;2023-06-22T06:58:16;28.20;99.20
30300;DHT22;17110;52.602;12.998;2023-06-22T07:00:41;28.00;99.90
30300;DHT22;17110;52.602;12.998;2023-06-22T07:03:08;28.10;99.80
30300;DHT22;17110;52.602;12.998;2023-06-22T07:05:33;28.30;99.90
30300;DHT22;17110;52.602;12.998;2023-06-22T07:07:59;28.10;99.40
30300;DHT22;17110;52.602;12.998;2023-06-22T07:10:26;28.10;98.50
30300;DHT22;17110;52.602;12.998;2023-06-22T07:12:52;28.00;99.10
30300;DHT22;17110;52.602;12.998;2023-06-22T07:15:18;28.10;98.40
30300;DHT22;17110;52.602;12.998;2023-06-22T07:17:43;28.10;98.50
30300;DHT22;17110;52.602;12.998;2023-06-22T07:20:10;28.10;99.50
30300;DHT22;17110;52.602;12.998;2023-06-22T07:22:36;28.20;98.60
30300;DHT22;17110;52.602;12.998;2023-06-22T07:25:01;28.40;98.40
30300;DHT22;17110;52.602;12.998;2023-06-22T07:27:28;28.30;96.30
30300;DHT22;17110;52.602;12.998;2023-06-22T07:29:54;28.60;99.60
30300;DHT22;17110;52.602;12.998;2023-06-22T07:32:20;28.80;97.50
30300;DHT22;17110;52.602;12.998;2023-06-22T07:34:45;28.30;97.20
30300;DHT22;17110;52.602;12.998;2023-06-22T07:37:11;28.10;97.70
30300;DHT22;17110;52.602;12.998;2023-06-22T07:39:37;27.90;97.50
30300;DHT22;17110;52.602;12.998;2023-06-22T07:42:03;27.40;96.50
30300;DHT22;17110;52.602;12.998;2023-06-22T07:44:30;27.30;98.00
30300;DHT22;17110;52.602;12.998;2023-06-22T07:46:55;27.40;98.50
30300;DHT22;17110;52.602;12.998;2023-06-22T07:49:21;27.70;98.00
30300;DHT22;17110;52.602;12.998;2023-06-22T07:51:47;27.30;98.00
30300;DHT22;17110;52.602;12.998;2023-06-22T07:54:12;27.50;98.70
30300;DHT22;17110;52.602;12.998;2023-06-22T07:56:38;27.50;96.20
30300;DHT22;17110;52.602;12.998;2023-06-22T07:59:04;27.40;98.00
30300;DHT22;17110;52.602;12.998;2023-06-22T08:01:31;27.60;97.80
30300;DHT22;17110;52.602;12.998;2023-06-22T08:03:56;28.20;98.20
30300;DHT22;17110;52.602;12.998;2023-06-22T08:06:22;28.20;96.90
30300;DHT22;17110;52.602;12.998;2023-06-22T08:08:48;28.70;95.80
30300;DHT22;17110;52.602;12.998;2023-06-22T08:11:13;28.50;95.40
30300;DHT22;17110;52.602;12.998;2023-06-22T08:13:39;28.60;97.30
30300;DHT22;17110;52.602;12.998;2023-06-22T08:16:05;28.40;97.10
30300;DHT22;17110;52.602;12.998;2023-06-22T08:18:32;28.70;98.10
30300;DHT22;17110;52.602;12.998;2023-06-22T08:20:57;29.10;96.90
30300;DHT22;17110;52.602;12.998;2023-06-22T08:23:23;29.40;96.10
30300;DHT22;17110;52.602;12.998;2023-06-22T08:25:48;29.30;95.10
30300;DHT22;17110;52.602;12.998;2023-06-22T08:28:14;29.50;95.40
30300;DHT22;17110;52.602;12.998;2023-06-22T08:30:40;29.40;93.90
30300;DHT22;17110;52.602;12.998;2023-06-22T08:33:05;29.20;93.80
30300;DHT22;17110;52.602;12.998;2023-06-22T08:35:32;28.80;92.90
30300;DHT22;17110;52.602;12.998;2023-06-22T08:37:58;28.30;94.20
30300;DHT22;17110;52.602;12.998;2023-06-22T08:40:25;27.80;93.40
30300;DHT22;17110;52.602;12.998;2023-06-22T08:42:50;27.50;94.80
30300;DHT22;17110;52.602;12.998;2023-06-22T08:45:16;27.50;94.50
30300;DHT22;17110;52.602;12.998;2023-06-22T08:47:42;27.70;95.40
30300;DHT22;17110;52.602;12.998;2023-06-22T08:50:08;27.60;94.60
30300;DHT22;17110;52.602;12.998;2023-06-22T08:52:36;27.40;95.30
30300;DHT22;17110;52.602;12.998;2023-06-22T08:55:02;27.70;95.20
30300;DHT22;17110;52.602;12.998;2023-06-22T08:57:28;27.80;94.60
30300;DHT22;17110;52.602;12.998;2023-06-22T08:59:53;27.60;95.80
30300;DHT22;17110;52.602;12.998;2023-06-22T09:02:19;27.70;95.00
30300;DHT22;17110;52.602;12.998;2023-06-22T09:04:45;28.00;95.80
30300;DHT22;17110;52.602;12.998;2023-06-22T09:07:11;28.10;95.70
30300;DHT22;17110;52.602;12.998;2023-06-22T09:09:38;28.50;96.00
30300;DHT22;17110;52.602;12.998;2023-06-22T09:12:04;28.70;96.30
30300;DHT22;17110;52.602;12.998;2023-06-22T09:14:30;28.60;94.90
30300;DHT22;17110;52.602;12.998;2023-06-22T09:16:56;28.70;94.80
30300;DHT22;17110;52.602;12.998;2023-06-22T09:19:22;28.60;93.80
30300;DHT22;17110;52.602;12.998;2023-06-22T09:21:47;28.50;94.20
30300;DHT22;17110;52.602;12.998;2023-06-22T09:24:13;28.40;95.30
30300;DHT22;17110;52.602;12.998;2023-06-22T09:26:40;28.60;95.20
30300;DHT22;17110;52.602;12.998;2023-06-22T09:29:06;28.60;94.60
30300;DHT22;17110;52.602;12.998;2023-06-22T09:31:31;28.60;94.60
30300;DHT22;17110;52.602;12.998;2023-06-22T09:33:57;28.80;94.80
30300;DHT22;17110;52.602;12.998;2023-06-22T09:36:23;29.30;95.00
30300;DHT22;17110;52.602;12.998;2023-06-22T09:38:49;29.90;94.20
30300;DHT22;17110;52.602;12.998;2023-06-22T09:41:15;30.00;93.70
30300;DHT22;17110;52.602;12.998;2023-06-22T09:43:42;29.80;92.80
30300;DHT22;17110;52.602;12.998;2023-06-22T09:46:07;29.60;93.60
30300;DHT22;17110;52.602;12.998;2023-06-22T09:48:33;29.10;92.90
30300;DHT22;17110;52.602;12.998;2023-06-22T09:50:59;28.90;93.00
30300;DHT22;17110;52.602;12.998;2023-06-22T09:53:24;28.50;92.40
30300;DHT22;17110;52.602;12.998;2023-06-22T09:55:50;28.60;93.10
30300;DHT22;17110;52.602;12.998;2023-06-22T09:58:15;28.50;94.10
30300;DHT22;17110;52.602;12.998;2023-06-22T10:00:42;28.60;94.00
30300;DHT22;17110;52.602;12.998;2023-06-22T10:03:08;28.80;95.30
30300;DHT22;17110;52.602;12.998;2023-06-22T10:05:34;28.90;93.50
30300;DHT22;17110;52.602;12.998;2023-06-22T10:07:59;28.70;94.30
30300;DHT22;17110;52.602;12.998;2023-06-22T10:10:25;28.60;94.10
30300;DHT22;17110;52.602;12.998;2023-06-22T10:12:55;28.10;94.70
30300;DHT22;17110;52.602;12.998;2023-06-22T10:15:21;28.10;94.50
30300;DHT22;17110;52.602;12.998;2023-06-22T10:17:48;28.40;95.20
30300;DHT22;17110;52.602;12.998;2023-06-22T10:20:14;28.70;95.30
30300;DHT22;17110;52.602;12.998;2023-06-22T10:22:40;28.70;94.30
30300;DHT22;17110;52.602;12.998;2023-06-22T10:25:07;28.80;95.00
30300;DHT22;17110;52.602;12.998;2023-06-22T10:27:33;28.90;95.80
30300;DHT22;17110;52.602;12.998;2023-06-22T10:29:58;28.90;95.20
30300;DHT22;17110;52.602;12.998;2023-06-22T10:32:24;29.50;95.80
30300;DHT22;17110;52.602;12.998;2023-06-22T10:34:51;30.00;94.20
30300;DHT22;17110;52.602;12.998;2023-06-22T10:37:17;30.20;94.20
30300;DHT22;17110;52.602;12.998;2023-06-22T10:39:42;30.10;92.80
30300;DHT22;17110;52.602;12.998;2023-06-22T10:42:08;29.70;93.20
30300;DHT22;17110;52.602;12.998;2023-06-22T10:44:34;30.20;93.80
30300;DHT22;17110;52.602;12.998;2023-06-22T10:46:59;30.20;92.40
30300;DHT22;17110;52.602;12.998;2023-06-22T10:49:25;30.30;92.60
30300;DHT22;17110;52.602;12.998;2023-06-22T10:51:52;30.40;93.80
30300;DHT22;17110;52.602;12.998;2023-06-22T10:54:18;30.50;93.80
30300;DHT22;17110;52.602;12.998;2023-06-22T10:56:43;30.30;92.40
30300;DHT22;17110;52.602;12.998;2023-06-22T10:59:09;29.60;92.20
30300;DHT22;17110;52.602;12.998;2023-06-22T11:01:35;29.80;93.50
30300;DHT22;17110;52.602;12.998;2023-06-22T11:04:00;29.70;93.60
30300;DHT22;17110;52.602;12.998;2023-06-22T11:06:26;29.50;92.80
30300;DHT22;17110;52.602;12.998;2023-06-22T11:08:53;29.70;92.90
30300;DHT22;17110;52.602;12.998;2023-06-22T11:11:18;28.80;91.90
30300;DHT22;17110;52.602;12.998;2023-06-22T11:13:44;28.80;93.60
30300;DHT22;17110;52.602;12.998;2023-06-22T11:16:10;28.90;92.80
30300;DHT22;17110;52.602;12.998;2023-06-22T11:18:36;28.80;92.80
30300;DHT22;17110;52.602;12.998;2023-06-22T11:21:01;29.10;94.30
30300;DHT22;17110;52.602;12.998;2023-06-22T11:23:27;29.60;93.10
30300;DHT22;17110;52.602;12.998;2023-06-22T11:25:54;29.40;91.50
30300;DHT22;17110;52.602;12.998;2023-06-22T11:28:20;29.50;93.30
30300;DHT22;17110;52.602;12.998;2023-06-22T11:30:45;29.40;91.60
30300;DHT22;17110;52.602;12.998;2023-06-22T11:33:11;29.20;91.70
30300;DHT22;17110;52.602;12.998;2023-06-22T11:35:37;29.30;93.20
30300;DHT22;17110;52.602;12.998;2023-06-22T11:38:02;29.70;93.70
30300;DHT22;17110;52.602;12.998;2023-06-22T11:40:28;29.50;91.80
30300;DHT22;17110;52.602;12.998;2023-06-22T11:42:55;29.00;92.00
30300;DHT22;17110;52.602;12.998;2023-06-22T11:45:21;29.10;91.70
30300;DHT22;17110;52.602;12.998;2023-06-22T11:47:46;29.30;93.30
30300;DHT22;17110;52.602;12.998;2023-06-22T11:50:12;29.40;91.90
30300;DHT22;17110;52.602;12.998;2023-06-22T11:52:38;29.80;92.00
30300;DHT22;17110;52.602;12.998;2023-06-22T11:55:04;29.90;91.80
30300;DHT22;17110;52.602;12.998;2023-06-22T11:57:30;30.00;92.80
30300;DHT22;17110;52.602;12.998;2023-06-22T11:59:57;29.70;91.80
30300;DHT22;17110;52.602;12.998;2023-06-22T12:02:22;29.70;91.30
30300;DHT22;17110;52.602;12.998;2023-06-22T12:04:48;30.00;92.90
30300;DHT22;17110;52.602;12.998;2023-06-22T12:07:14;30.10;92.20
30300;DHT22;17110;52.602;12.998;2023-06-22T12:09:39;30.20;92.20
30300;DHT22;17110;52.602;12.998;2023-06-22T12:12:05;30.30;92.40
30300;DHT22;17110;52.602;12.998;2023-06-22T12:14:31;30.30;91.10
30300;DHT22;17110;52.602;12.998;2023-06-22T12:16:58;30.50;91.10
30300;DHT22;17110;52.602;12.998;2023-06-22T12:19:24;30.20;91.60
30300;DHT22;17110;52.602;12.998;2023-06-22T12:21:49;29.70;90.60
30300;DHT22;17110;52.602;12.998;2023-06-22T12:24:15;30.00;92.10
30300;DHT22;17110;52.602;12.998;2023-06-22T12:26:41;30.30;91.60
30300;DHT22;17110;52.602;12.998;2023-06-22T12:29:06;30.10;91.10
30300;DHT22;17110;52.602;12.998;2023-06-22T12:31:32;30.10;91.20
30300;DHT22;17110;52.602;12.998;2023-06-22T12:33:59;30.30;91.20
30300;DHT22;17110;52.602;12.998;2023-06-22T12:36:25;30.40;91.50
30300;DHT22;17110;52.602;12.998;2023-06-22T12:38:50;29.80;92.10
30300;DHT22;17110;52.602;12.998;2023-06-22T12:41:16;29.60;92.00
30300;DHT22;17110;52.602;12.998;2023-06-22T12:43:42;29.70;92.20
30300;DHT22;17110;52.602;12.998;2023-06-22T12:46:07;30.10;94.30
30300;DHT22;17110;52.602;12.998;2023-06-22T12:48:33;29.70;91.90
30300;DHT22;17110;52.602;12.998;2023-06-22T12:51:01;29.70;91.90
30300;DHT22;17110;52.602;12.998;2023-06-22T12:53:26;30.00;92.60
30300;DHT22;17110;52.602;12.998;2023-06-22T12:55:52;30.20;91.80
30300;DHT22;17110;52.602;12.998;2023-06-22T12:58:17;30.20;91.10
30300;DHT22;17110;52.602;12.998;2023-06-22T13:00:43;29.80;91.60
30300;DHT22;17110;52.602;12.998;2023-06-22T13:03:09;29.80;91.20
30300;DHT22;17110;52.602;12.998;2023-06-22T13:05:34;29.90;91.40
30300;DHT22;17110;52.602;12.998;2023-06-22T13:08:01;29.60;91.60
30300;DHT22;17110;52.602;12.998;2023-06-22T13:10:27;29.70;91.90
30300;DHT22;17110;52.602;12.998;2023-06-22T13:12:53;29.60;92.90
30300;DHT22;17110;52.602;12.998;2023-06-22T13:15:19;29.50;93.00
30300;DHT22;17110;52.602;12.998;2023-06-22T13:17:44;29.80;92.90
30300;DHT22;17110;52.602;12.998;2023-06-22T13:20:10;29.90;92.00
30300;DHT22;17110;52.602;12.998;2023-06-22T13:22:36;29.70;91.20
30300;DHT22;17110;52.602;12.998;2023-06-22T13:25:04;29.60;92.20
30300;DHT22;17110;52.602;12.998;2023-06-22T13:27:29;29.90;91.70
30300;DHT22;17110;52.602;12.998;2023-06-22T13:29:55;30.30;92.40
30300;DHT22;17110;52.602;12.998;2023-06-22T13:32:21;30.70;92.20
30300;DHT22;17110;52.602;12.998;2023-06-22T13:34:46;31.00;90.70
30300;DHT22;17110;52.602;12.998;2023-06-22T13:37:12;30.80;91.20
30300;DHT22;17110;52.602;12.998;2023-06-22T13:39:38;30.70;91.20
30300;DHT22;17110;52.602;12.998;2023-06-22T13:42:06;30.40;91.60
30300;DHT22;17110;52.602;12.998;2023-06-22T13:44:32;30.20;91.60
30300;DHT22;17110;52.602;12.998;2023-06-22T13:46:58;30.60;91.30
30300;DHT22;17110;52.602;12.998;2023-06-22T13:49:23;30.80;91.60
30300;DHT22;17110;52.602;12.998;2023-06-22T13:51:49;30.70;91.10
30300;DHT22;17110;52.602;12.998;2023-06-22T13:54:15;30.20;92.00
30300;DHT22;17110;52.602;12.998;2023-06-22T13:56:41;29.80;91.20
30300;DHT22;17110;52.602;12.998;2023-06-22T13:59:08;29.90;91.70
30300;DHT22;17110;52.602;12.998;2023-06-22T14:01:33;29.90;91.60
30300;DHT22;17110;52.602;12.998;2023-06-22T14:03:59;29.80;91.20
30300;DHT22;17110;52.602;12.998;2023-06-22T14:06:25;30.10;91.40
30300;DHT22;17110;52.602;12.998;2023-06-22T14:08:52;30.10;91.20
30300;DHT22;17110;52.602;12.998;2023-06-22T14:11:18;29.60;92.40
30300;DHT22;17110;52.602;12.998;2023-06-22T14:13:44;29.70;91.70
30300;DHT22;17110;52.602;12.998;2023-06-22T14:16:11;29.90;92.70
30300;DHT22;17110;52.602;12.998;2023-06-22T14:18:36;30.10;91.50
30300;DHT22;17110;52.602;12.998;2023-06-22T14:21:02;30.40;91.90
30300;DHT22;17110;52.602;12.998;2023-06-22T14:23:28;30.10;91.20
30300;DHT22;17110;52.602;12.998;2023-06-22T14:25:54;30.10;91.50
30300;DHT22;17110;52.602;12.998;2023-06-22T14:28:19;30.30;91.70
30300;DHT22;17110;52.602;12.998;2023-06-22T14:30:45;30.50;91.40
30300;DHT22;17110;52.602;12.998;2023-06-22T14:33:12;30.40;90.50
30300;DHT22;17110;52.602;12.998;2023-06-22T14:35:38;30.30;91.80
30300;DHT22;17110;52.602;12.998;2023-06-22T14:38:03;30.40;90.80
30300;DHT22;17110;52.602;12.998;2023-06-22T14:40:29;30.50;91.20
30300;DHT22;17110;52.602;12.998;2023-06-22T14:42:55;30.10;91.00
30300;DHT22;17110;52.602;12.998;2023-06-22T14:45:20;30.10;91.00
30300;DHT22;17110;52.602;12.998;2023-06-22T14:47:46;29.70;90.80
30300;DHT22;17110;52.602;12.998;2023-06-22T14:50:14;29.40;92.10
30300;DHT22;17110;52.602;12.998;2023-06-22T14:52:39;29.10;91.60
30300;DHT22;17110;52.602;12.998;2023-06-22T14:55:06;29.00;92.40
30300;DHT22;17110;52.602;12.998;2023-06-22T14:57:32;29.20;92.60
30300;DHT22;17110;52.602;12.998;2023-06-22T14:59:57;29.40;92.10
30300;DHT22;17110;52.602;12.998;2023-06-22T15:02:23;29.50;92.40
30300;DHT22;17110;52.602;12.998;2023-06-22T15:04:49;29.70;92.50
30300;DHT22;17110;52.602;12.998;2023-06-22T15:07:17;29.60;92.20
30300;DHT22;17110;52.602;12.998;2023-06-22T15:09:42;29.70;92.00